Time,TemperatureF,DewpointF,PressureIn,WindDirection,WindDirectionDegrees,WindSpeedMPH,WindSpeedGustMPH,Humidity,HourlyPrecipIn,Conditions,Clouds,dailyrainin,SoftwareType,DateUTC
2013-02-25 00:02:00,58.0,46.0,29.59,SE,137,10.0,25.0,64,0.00,,,0.00,,2013-02-25 06:02:00,
2013-02-25 00:11:00,58.0,46.0,29.59,SE,137,10.0,25.0,64,0.00,,,0.00,,2013-02-25 06:11:00,
2013-02-25 00:21:00,58.0,46.0,29.59,SE,143,12.0,20.0,65,0.00,,,0.00,,2013-02-25 06:21:00,
2013-02-25 00:31:00,58.0,46.0,29.57,SE,142,10.0,20.0,65,0.00,,,0.00,,2013-02-25 06:31:00,
2013-02-25 00:41:00,58.0,46.0,29.57,SE,142,10.0,20.0,65,0.00,,,0.00,,2013-02-25 06:41:00,
2013-02-25 00:52:00,58.0,47.0,29.54,SE,136,13.0,23.0,66,0.00,,,0.00,,2013-02-25 06:52:00,
2013-02-25 01:01:00,58.0,47.0,29.53,ESE,114,12.0,23.0,66,0.00,,,0.00,,2013-02-25 07:01:00,
2013-02-25 01:11:00,58.0,47.0,29.54,SE,124,9.0,14.0,66,0.00,,,0.00,,2013-02-25 07:11:00,
2013-02-25 01:21:00,58.0,47.0,29.54,SE,124,9.0,14.0,66,0.00,,,0.00,,2013-02-25 07:21:00,
2013-02-25 01:31:00,58.0,46.0,29.56,ESE,121,5.0,12.0,64,0.00,,,0.00,,2013-02-25 07:31:00,
2013-02-25 01:41:00,58.0,46.0,29.56,ESE,121,5.0,12.0,64,0.00,,,0.00,,2013-02-25 07:41:00,
2013-02-25 01:52:00,59.0,46.0,29.55,ESE,110,9.0,16.0,63,0.00,,,0.00,,2013-02-25 07:52:00,
2013-02-25 02:01:00,59.0,46.0,29.55,SE,139,9.0,21.0,62,0.00,,,0.00,,2013-02-25 08:01:00,
2013-02-25 02:11:00,59.0,46.0,29.54,ESE,121,14.0,22.0,62,0.00,,,0.00,,2013-02-25 08:11:00,
2013-02-25 02:21:00,59.0,46.0,29.54,ESE,121,14.0,22.0,62,0.00,,,0.00,,2013-02-25 08:21:00,
2013-02-25 02:31:00,59.0,46.0,29.55,SE,128,9.0,15.0,63,0.00,,,0.00,,2013-02-25 08:31:00,
2013-02-25 02:41:00,59.0,46.0,29.55,SE,128,9.0,15.0,63,0.00,,,0.00,,2013-02-25 08:41:00,
2013-02-25 02:52:00,59.0,46.0,29.59,SE,134,6.0,12.0,63,0.00,,,0.00,,2013-02-25 08:52:00,
2013-02-25 03:01:00,59.0,47.0,29.58,SE,124,1.0,8.0,64,0.00,,,0.00,,2013-02-25 09:01:00,
2013-02-25 03:12:00,59.0,47.0,29.58,SE,124,1.0,8.0,64,0.00,,,0.00,,2013-02-25 09:12:00,
2013-02-25 03:21:00,59.0,47.0,29.59,ESE,123,1.0,2.0,64,0.00,,,0.00,,2013-02-25 09:21:00,
2013-02-25 03:31:00,58.0,49.0,29.59,ESE,123,0.0,1.0,72,0.02,,,0.02,,2013-02-25 09:31:00,
2013-02-25 03:41:00,58.0,49.0,29.59,ESE,123,0.0,1.0,72,0.02,,,0.02,,2013-02-25 09:41:00,
2013-02-25 03:52:00,56.0,50.0,29.60,ESE,123,1.0,3.0,79,0.02,,,0.02,,2013-02-25 09:52:00,
2013-02-25 04:01:00,55.0,49.0,29.59,ESE,123,0.0,2.0,81,0.05,,,0.05,,2013-02-25 10:01:00,
2013-02-25 04:11:00,54.0,49.0,29.57,ESE,123,3.0,5.0,84,0.06,,,0.06,,2013-02-25 10:11:00,
2013-02-25 04:21:00,54.0,49.0,29.57,ESE,123,3.0,5.0,84,0.06,,,0.06,,2013-02-25 10:21:00,
2013-02-25 04:31:00,54.0,50.0,29.56,ESE,123,2.0,5.0,86,0.04,,,0.06,,2013-02-25 10:31:00,
2013-02-25 04:42:00,54.0,50.0,29.56,ESE,123,2.0,5.0,86,0.04,,,0.06,,2013-02-25 10:42:00,
2013-02-25 04:52:00,54.0,50.0,29.54,ESE,103,3.0,7.0,87,0.04,,,0.06,,2013-02-25 10:52:00,
2013-02-25 05:01:00,53.0,49.0,29.53,ENE,73,6.0,9.0,87,0.01,,,0.06,,2013-02-25 11:01:00,
2013-02-25 05:11:00,53.0,49.0,29.53,ENE,73,6.0,9.0,87,0.01,,,0.06,,2013-02-25 11:11:00,
2013-02-25 05:21:00,53.0,49.0,29.53,ENE,67,3.0,7.0,85,0.00,,,0.06,,2013-02-25 11:21:00,
2013-02-25 05:32:00,53.0,49.0,29.52,East,86,2.0,8.0,87,0.00,,,0.06,,2013-02-25 11:32:00,
2013-02-25 05:42:00,53.0,49.0,29.52,East,86,2.0,8.0,87,0.00,,,0.06,,2013-02-25 11:42:00,
2013-02-25 05:52:00,53.0,49.0,29.52,ENE,75,2.0,7.0,86,0.00,,,0.06,,2013-02-25 11:52:00,
2013-02-25 06:01:00,53.0,49.0,29.51,ENE,78,2.0,7.0,85,0.00,,,0.06,,2013-02-25 12:01:00,
2013-02-25 06:11:00,53.0,49.0,29.51,ENE,78,2.0,7.0,85,0.00,,,0.06,,2013-02-25 12:11:00,
2013-02-25 06:21:00,53.0,49.0,29.51,ENE,75,2.0,5.0,85,0.00,,,0.06,,2013-02-25 12:21:00,
2013-02-25 06:32:00,53.0,48.0,29.51,East,101,2.0,7.0,84,0.00,,,0.06,,2013-02-25 12:32:00,
2013-02-25 06:42:00,53.0,48.0,29.51,East,101,2.0,7.0,84,0.00,,,0.06,,2013-02-25 12:42:00,
2013-02-25 06:55:00,53.0,48.0,29.50,ESE,123,3.0,7.0,83,0.00,,,0.06,,2013-02-25 12:55:00,
2013-02-25 07:02:00,53.0,48.0,29.51,ESE,110,3.0,8.0,83,0.00,,,0.06,,2013-02-25 13:02:00,
2013-02-25 07:12:00,53.0,48.0,29.51,ESE,110,3.0,8.0,83,0.00,,,0.06,,2013-02-25 13:12:00,
2013-02-25 07:22:00,53.0,48.0,29.52,ESE,121,3.0,7.0,84,0.00,,,0.06,,2013-02-25 13:22:00,
2013-02-25 07:32:00,53.0,49.0,29.52,SE,130,5.0,7.0,86,0.00,,,0.06,,2013-02-25 13:32:00,
2013-02-25 07:42:00,53.0,49.0,29.52,SE,130,5.0,7.0,86,0.00,,,0.06,,2013-02-25 13:42:00,
2013-02-25 07:52:00,53.0,49.0,29.52,SE,126,2.0,6.0,87,0.00,,,0.06,,2013-02-25 13:52:00,
2013-02-25 08:03:00,53.0,49.0,29.53,SE,145,3.0,6.0,87,0.00,,,0.06,,2013-02-25 14:03:00,
2013-02-25 08:17:00,53.0,49.0,29.53,SE,145,3.0,6.0,87,0.00,,,0.06,,2013-02-25 14:17:00,
2013-02-25 08:32:00,54.0,50.0,29.53,SE,145,2.0,3.0,87,0.00,,,0.06,,2013-02-25 14:32:00,
2013-02-25 08:42:00,54.0,50.0,29.53,SE,145,2.0,3.0,87,0.00,,,0.06,,2013-02-25 14:42:00,
2013-02-25 08:52:00,54.0,51.0,29.53,SE,145,2.0,6.0,88,0.00,,,0.06,,2013-02-25 14:52:00,
2013-02-25 09:02:00,55.0,51.0,29.52,SSE,154,1.0,7.0,87,0.00,,,0.06,,2013-02-25 15:02:00,
2013-02-25 09:11:00,55.0,51.0,29.52,SSE,154,1.0,7.0,87,0.00,,,0.06,,2013-02-25 15:11:00,
2013-02-25 09:21:00,56.0,52.0,29.53,SW,214,9.0,14.0,87,0.00,,,0.06,,2013-02-25 15:21:00,
2013-02-25 09:32:00,54.0,49.0,29.53,SW,234,9.0,16.0,83,0.01,,,0.07,,2013-02-25 15:32:00,
2013-02-25 09:41:00,54.0,49.0,29.53,SW,234,9.0,16.0,83,0.01,,,0.07,,2013-02-25 15:41:00,
2013-02-25 09:52:00,52.0,47.0,29.53,West,259,10.0,15.0,82,0.01,,,0.07,,2013-02-25 15:52:00,
2013-02-25 10:01:00,52.0,46.0,29.53,SW,232,10.0,18.0,81,0.01,,,0.07,,2013-02-25 16:01:00,
2013-02-25 10:11:00,52.0,46.0,29.53,SW,232,10.0,18.0,81,0.01,,,0.07,,2013-02-25 16:11:00,
2013-02-25 10:21:00,52.0,44.0,29.54,SW,236,12.0,23.0,74,0.01,,,0.07,,2013-02-25 16:21:00,
2013-02-25 10:31:00,51.0,42.0,29.54,SW,228,12.0,20.0,72,0.00,,,0.07,,2013-02-25 16:31:00,
2013-02-25 10:42:00,51.0,42.0,29.54,SW,228,12.0,20.0,72,0.00,,,0.07,,2013-02-25 16:42:00,
2013-02-25 10:52:00,50.0,41.0,29.54,SW,219,12.0,21.0,70,0.00,,,0.07,,2013-02-25 16:52:00,
2013-02-25 11:01:00,50.0,41.0,29.54,WSW,247,7.0,21.0,72,0.00,,,0.07,,2013-02-25 17:01:00,
2013-02-25 11:11:00,50.0,41.0,29.54,WSW,247,7.0,21.0,72,0.00,,,0.07,,2013-02-25 17:11:00,
2013-02-25 11:21:00,51.0,42.0,29.54,SW,236,9.0,20.0,70,0.00,,,0.07,,2013-02-25 17:21:00,
2013-02-25 11:31:00,52.0,41.0,29.53,WSW,240,12.0,22.0,65,0.00,,,0.07,,2013-02-25 17:31:00,
2013-02-25 11:41:00,52.0,41.0,29.53,WSW,240,12.0,22.0,65,0.00,,,0.07,,2013-02-25 17:41:00,
2013-02-25 11:52:00,53.0,40.0,29.53,WSW,246,9.0,20.0,62,0.00,,,0.07,,2013-02-25 17:52:00,
2013-02-25 12:01:00,55.0,41.0,29.52,WSW,248,11.0,21.0,58,0.00,,,0.07,,2013-02-25 18:01:00,
2013-02-25 12:12:00,55.0,41.0,29.52,WSW,248,11.0,21.0,58,0.00,,,0.07,,2013-02-25 18:12:00,
2013-02-25 12:21:00,55.0,39.0,29.51,WSW,237,13.0,21.0,54,0.00,,,0.07,,2013-02-25 18:21:00,
2013-02-25 12:32:00,56.0,38.0,29.51,South,174,13.0,31.0,51,0.00,,,0.07,,2013-02-25 18:32:00,
2013-02-25 12:41:00,56.0,38.0,29.51,South,174,13.0,31.0,51,0.00,,,0.07,,2013-02-25 18:41:00,
2013-02-25 12:52:00,56.0,38.0,29.50,WSW,239,14.0,28.0,50,0.00,,,0.07,,2013-02-25 18:52:00,
2013-02-25 13:01:00,57.0,38.0,29.49,SSW,207,12.0,20.0,49,0.00,,,0.07,,2013-02-25 19:01:00,
2013-02-25 13:11:00,57.0,38.0,29.49,SSW,207,12.0,20.0,49,0.00,,,0.07,,2013-02-25 19:11:00,
2013-02-25 13:21:00,57.0,38.0,29.48,SSW,192,10.0,20.0,48,0.00,,,0.07,,2013-02-25 19:21:00,
2013-02-25 13:31:00,56.0,36.0,29.47,WSW,256,8.0,20.0,47,0.00,,,0.07,,2013-02-25 19:31:00,
2013-02-25 13:41:00,56.0,36.0,29.47,WSW,256,8.0,20.0,47,0.00,,,0.07,,2013-02-25 19:41:00,
2013-02-25 13:52:00,57.0,35.0,29.47,South,184,13.0,25.0,44,0.00,,,0.07,,2013-02-25 19:52:00,
2013-02-25 14:01:00,58.0,37.0,29.47,South,185,9.0,21.0,45,0.00,,,0.07,,2013-02-25 20:01:00,
2013-02-25 14:11:00,58.0,37.0,29.47,South,185,9.0,21.0,45,0.00,,,0.07,,2013-02-25 20:11:00,
2013-02-25 14:21:00,57.0,35.0,29.46,SW,229,14.0,28.0,44,0.00,,,0.07,,2013-02-25 20:21:00,
2013-02-25 14:31:00,55.0,36.0,29.47,South,190,13.0,24.0,48,0.00,,,0.07,,2013-02-25 20:31:00,
2013-02-25 14:41:00,55.0,36.0,29.47,South,190,13.0,24.0,48,0.00,,,0.07,,2013-02-25 20:41:00,
2013-02-25 14:52:00,54.0,35.0,29.46,West,267,13.0,22.0,49,0.00,,,0.07,,2013-02-25 20:52:00,
2013-02-25 15:01:00,54.0,33.0,29.47,SSW,193,15.0,25.0,45,0.00,,,0.07,,2013-02-25 21:01:00,
2013-02-25 15:11:00,54.0,33.0,29.47,SSW,193,15.0,25.0,45,0.00,,,0.07,,2013-02-25 21:11:00,
2013-02-25 15:21:00,53.0,32.0,29.47,SSW,212,9.0,21.0,45,0.00,,,0.07,,2013-02-25 21:21:00,
2013-02-25 15:31:00,51.0,31.0,29.48,WSW,248,16.0,23.0,46,0.00,,,0.07,,2013-02-25 21:31:00,
2013-02-25 15:42:00,51.0,31.0,29.48,WSW,248,16.0,23.0,46,0.00,,,0.07,,2013-02-25 21:42:00,
2013-02-25 15:52:00,50.0,31.0,29.48,SSW,213,12.0,24.0,48,0.00,,,0.07,,2013-02-25 21:52:00,
2013-02-25 16:01:00,49.0,31.0,29.48,WSW,240,12.0,28.0,49,0.00,,,0.07,,2013-02-25 22:01:00,
2013-02-25 16:11:00,49.0,31.0,29.48,WSW,240,12.0,28.0,49,0.00,,,0.07,,2013-02-25 22:11:00,
2013-02-25 16:21:00,49.0,32.0,29.48,West,261,10.0,21.0,51,0.00,,,0.07,,2013-02-25 22:21:00,
2013-02-25 16:32:00,48.0,31.0,29.49,West,272,14.0,24.0,52,0.00,,,0.07,,2013-02-25 22:32:00,
2013-02-25 16:42:00,48.0,31.0,29.49,West,272,14.0,24.0,52,0.00,,,0.07,,2013-02-25 22:42:00,
2013-02-25 16:52:00,47.0,32.0,29.49,West,274,12.0,25.0,56,0.00,,,0.07,,2013-02-25 22:52:00,
2013-02-25 17:01:00,46.0,33.0,29.49,WSW,244,14.0,26.0,60,0.00,,,0.07,,2013-02-25 23:01:00,
2013-02-25 17:11:00,46.0,33.0,29.49,WSW,244,14.0,26.0,60,0.00,,,0.07,,2013-02-25 23:11:00,
2013-02-25 17:22:00,45.0,34.0,29.50,WSW,254,10.0,21.0,64,0.00,,,0.07,,2013-02-25 23:22:00,
2013-02-25 17:31:00,45.0,35.0,29.49,SSW,200,13.0,21.0,67,0.00,,,0.07,,2013-02-25 23:31:00,
2013-02-25 17:41:00,45.0,35.0,29.49,SSW,200,13.0,21.0,67,0.00,,,0.07,,2013-02-25 23:41:00,
2013-02-25 17:52:00,43.0,36.0,29.50,SW,227,10.0,20.0,77,0.00,,,0.07,,2013-02-25 23:52:00,
2013-02-25 18:01:00,42.0,37.0,29.50,West,261,10.0,16.0,81,0.00,,,0.07,,2013-02-26 00:01:00,
2013-02-25 18:11:00,42.0,37.0,29.50,West,261,10.0,16.0,81,0.00,,,0.07,,2013-02-26 00:11:00,
2013-02-25 18:21:00,43.0,37.0,29.50,WSW,257,13.0,23.0,80,0.00,,,0.07,,2013-02-26 00:21:00,
2013-02-25 18:32:00,43.0,36.0,29.52,WNW,292,18.0,26.0,77,0.00,,,0.07,,2013-02-26 00:32:00,
2013-02-25 18:42:00,43.0,36.0,29.52,WNW,292,18.0,26.0,77,0.00,,,0.07,,2013-02-26 00:42:00,
2013-02-25 18:52:00,42.0,35.0,29.53,WNW,283,12.0,23.0,76,0.00,,,0.07,,2013-02-26 00:52:00,
2013-02-25 19:02:00,41.0,34.0,29.54,WNW,287,14.0,26.0,77,0.00,,,0.07,,2013-02-26 01:02:00,
2013-02-25 19:11:00,41.0,34.0,29.54,WNW,287,14.0,26.0,77,0.00,,,0.07,,2013-02-26 01:11:00,
2013-02-25 19:21:00,41.0,34.0,29.54,West,268,14.0,29.0,76,0.00,,,0.07,,2013-02-26 01:21:00,
2013-02-25 19:31:00,41.0,34.0,29.56,West,279,14.0,25.0,75,0.00,,,0.07,,2013-02-26 01:31:00,
2013-02-25 19:41:00,41.0,34.0,29.56,West,279,14.0,25.0,75,0.00,,,0.07,,2013-02-26 01:41:00,
2013-02-25 19:52:00,40.0,32.0,29.57,WNW,285,18.0,32.0,74,0.00,,,0.07,,2013-02-26 01:52:00,
2013-02-25 20:01:00,40.0,33.0,29.57,West,276,13.0,26.0,75,0.00,,,0.07,,2013-02-26 02:01:00,
2013-02-25 20:11:00,40.0,33.0,29.57,West,276,13.0,26.0,75,0.00,,,0.07,,2013-02-26 02:11:00,
2013-02-25 20:21:00,40.0,33.0,29.58,West,273,15.0,26.0,75,0.00,,,0.07,,2013-02-26 02:21:00,
2013-02-25 20:32:00,40.0,33.0,29.59,West,272,14.0,24.0,75,0.00,,,0.07,,2013-02-26 02:32:00,
2013-02-25 20:41:00,40.0,33.0,29.59,West,272,14.0,24.0,75,0.00,,,0.07,,2013-02-26 02:41:00,
2013-02-25 20:52:00,40.0,32.0,29.59,WNW,291,17.0,29.0,74,0.00,,,0.07,,2013-02-26 02:52:00,
2013-02-25 21:01:00,40.0,32.0,29.59,West,266,17.0,25.0,74,0.00,,,0.07,,2013-02-26 03:01:00,
2013-02-25 21:11:00,40.0,32.0,29.59,West,266,17.0,25.0,74,0.00,,,0.07,,2013-02-26 03:11:00,
2013-02-25 21:21:00,41.0,33.0,29.60,West,269,13.0,29.0,74,0.00,,,0.07,,2013-02-26 03:21:00,
2013-02-25 21:32:00,41.0,33.0,29.61,WNW,302,13.0,25.0,74,0.00,,,0.07,,2013-02-26 03:32:00,
2013-02-25 21:41:00,41.0,33.0,29.61,WNW,302,13.0,25.0,74,0.00,,,0.07,,2013-02-26 03:41:00,
2013-02-25 21:52:00,41.0,33.0,29.62,West,268,14.0,29.0,73,0.00,,,0.07,,2013-02-26 03:52:00,
2013-02-25 22:01:00,41.0,33.0,29.63,WNW,301,17.0,38.0,73,0.00,,,0.07,,2013-02-26 04:01:00,
2013-02-25 22:11:00,41.0,33.0,29.63,WNW,301,17.0,38.0,73,0.00,,,0.07,,2013-02-26 04:11:00,
2013-02-25 22:21:00,41.0,33.0,29.64,NW,310,23.0,35.0,73,0.00,,,0.07,,2013-02-26 04:21:00,
2013-02-25 22:32:00,41.0,33.0,29.64,WNW,292,20.0,31.0,73,0.00,,,0.07,,2013-02-26 04:32:00,
2013-02-25 22:42:00,41.0,33.0,29.64,WNW,292,20.0,31.0,73,0.00,,,0.07,,2013-02-26 04:42:00,
2013-02-25 22:52:00,41.0,33.0,29.66,NW,308,21.0,35.0,73,0.00,,,0.07,,2013-02-26 04:52:00,
2013-02-25 23:01:00,41.0,33.0,29.67,WNW,284,20.0,28.0,73,0.00,,,0.07,,2013-02-26 05:01:00,
2013-02-25 23:11:00,41.0,34.0,29.67,WNW,291,16.0,32.0,75,0.00,,,0.07,,2013-02-26 05:11:00,
2013-02-25 23:21:00,41.0,34.0,29.67,WNW,291,16.0,32.0,75,0.00,,,0.07,,2013-02-26 05:21:00,
2013-02-25 23:31:00,41.0,34.0,29.68,WNW,303,19.0,28.0,75,0.00,,,0.07,,2013-02-26 05:31:00,
2013-02-25 23:42:00,41.0,34.0,29.68,WNW,303,19.0,28.0,75,0.00,,,0.07,,2013-02-26 05:42:00,
2013-02-25 23:52:00,41.0,34.0,29.69,West,279,13.0,31.0,75,0.00,,,0.07,,2013-02-26 05:52:00,